Terminal Aerodrome Forecast
Issued by NWS

Home | Current Version | Previous Version | Text Only | Print | Product List | Glossary On
Versions: 1 2 3 4 5 6 7 8 9 10 11 12 13 14 15 16 17
000
FTUS41 KBGM 280800 AAA
TAFITH
TAF AMD
KITH 280848Z 2809/2906 24005KT P6SM -RA SCT015 OVC035
      TEMPO 2809/2811 3SM -RA BR OVC015
     FM281100 32012G22KT P6SM -SHRA OVC012
      TEMPO 2811/2815 OVC008
     FM281500 33010G20KT P6SM OVC015
     FM281800 33010KT P6SM SCT015 OVC025=

USA.gov is the U.S. government's official web portal to all federal, state and local government web resources and services.